Airfield :
LOGIN :

Register | Disclaimer

   EN    FR    IT 

 










Legend :    VFR   Marginal VFR   IFR   Intensive IFR   Very Intensive IFR
Visi :
Ceiling :
>= 8 km
>= 3000ft
5 to 8 km
1000 to 3000 ft
1500m to 5 km
500 to 1000 ft
800 to 1500m
200 to 500 ft
< 800m
< 200 ft
Symbols :   Thunderstorms  Fog  Heavy snow  Heavy precipitations  Wind > 20 kt
SIGMETs :     Misc.  Thunderstorms  Icing  Turbulence  Mountain Waves  Volcanic Ashes







- Airport Elevation : 74 ft
- IATA code : EIN


EHEH - Eindhoven

EXPIRED METARs :
  • 241441Z AUTO 24010KT 200V270 9999 FEW012 SCT014 BKN017 18/16 Q1015 GRN 23013KT 9999 BKN016 OVC020 TEMPO 23014G24KT FEW008 BKN012 OVC015
  • 241425Z AUTO 24012KT 200V300 7000 HZ BKN016 OVC021 18/15 Q1015 WHT 23013KT 9999 BKN016 OVC020 TEMPO 23014G24KT FEW008 BKN012 OVC015
  • 241421Z AUTO 24012KT 200V300 7000 HZ FEW011 OVC018 18/15 Q1015 WHT 23013KT 9999 BKN016 OVC020 TEMPO 23014G24KT FEW008 BKN012 OVC015
  • 241355Z AUTO 24011KT 210V270 9999 OVC019 19/14 Q1015 WHT 23013KT 9999 BKN016 OVC020 TEMPO 23014G24KT FEW008 BKN012 OVC015
  • 241325Z AUTO 23010KT 190V290 9999 BKN019 OVC022 19/14 Q1015 WHT 23013KT 9999 BKN016 OVC020 TEMPO 23014G24KT FEW008 BKN012 OVC015
  • 241255Z AUTO 23012KT 200V270 9999 BKN015 OVC019 19/14 Q1015 WHT 23013KT 9999 BKN016 OVC020 TEMPO 23014G24KT FEW008 BKN012 OVC015
  • 241242Z AUTO 23013KT 190V280 9999 FEW014 BKN020 OVC024 19/15 Q1015 WHT 23013KT 9999 BKN016 OVC020 TEMPO 23014G24KT FEW008 BKN012 OVC015
  • 241225Z AUTO 23014KT 190V260 9999 FEW010 OVC020 19/14 Q1015 WHT 23013KT 9999 BKN016 OVC020 TEMPO 23014G24KT FEW008 BKN012 OVC015
  • 241155Z AUTO 24014KT 200V280 9999 BKN017 OVC021 19/14 Q1015 WHT 23013KT 9999 BKN016 OVC020 TEMPO 23014G24KT FEW008 BKN012 OVC015

TAF TAF EHEH
Valid from the 24 at 12:00 until the 25 at 18:00 UTC


241140Z 2412/2518 23012G22KT BKN020
TEMPO 2412/2414 SCT012 BKN018
TEMPO 2412/2417 26010KT
TEMPO 2422/2508 SCT012 BKN015
No reported NOTAMs for that airfield.



MET'MAP, your aeronautical weather chart ! - Copyright ORBIFLY December 2007 - Disclaimer

ORBIFLY MET'MAP TEAM :

Programming & Development : Alexandra Zaïnal
Concept & Development : Baudouin d'Aumeries
Co-Development & Prog : Marc-Olivier Méhu
Technical & hardware support : Manuel Goepfert

Contact : metmap@orbifly.com




SOURCES & CREDITS :

   NOAA